Time,TemperatureF,DewpointF,PressureIn,WindDirection,WindDirectionDegrees,WindSpeedMPH,WindSpeedGustMPH,Humidity,HourlyPrecipIn,Conditions,Clouds,dailyrainin,SoftwareType,DateUTC
2013-10-07 00:13:00,53.0,41.0,29.88,WSW,257,4.0,8.0,63,0.00,,,0.15,,2013-10-07 05:13:00,
2013-10-07 00:22:00,53.0,40.0,29.88,WSW,254,2.0,6.0,62,0.00,,,0.15,,2013-10-07 05:22:00,
2013-10-07 00:43:00,53.0,40.0,29.88,WSW,240,4.0,9.0,62,0.00,,,0.15,,2013-10-07 05:43:00,
2013-10-07 00:52:00,54.0,41.0,29.88,WSW,243,5.0,11.0,61,0.00,,,0.15,,2013-10-07 05:52:00,
2013-10-07 01:12:00,54.0,41.0,29.87,West,271,4.0,11.0,61,0.00,,,0.15,,2013-10-07 06:12:00,
2013-10-07 01:21:00,54.0,40.0,29.86,West,260,4.0,10.0,60,0.00,,,0.15,,2013-10-07 06:21:00,
2013-10-07 01:42:00,53.0,39.0,29.86,West,277,4.0,9.0,60,0.00,,,0.15,,2013-10-07 06:42:00,
2013-10-07 01:52:00,53.0,39.0,29.86,WSW,253,4.0,8.0,60,0.00,,,0.12,,2013-10-07 06:52:00,
2013-10-07 02:12:00,53.0,40.0,29.86,WSW,255,5.0,10.0,62,0.00,,,0.12,,2013-10-07 07:12:00,
2013-10-07 02:22:00,53.0,40.0,29.86,West,273,5.0,11.0,62,0.00,,,0.12,,2013-10-07 07:22:00,
2013-10-07 02:42:00,52.0,40.0,29.86,West,271,3.0,10.0,63,0.00,,,0.12,,2013-10-07 07:42:00,
2013-10-07 02:52:00,52.0,40.0,29.87,West,268,5.0,10.0,63,0.00,,,0.08,,2013-10-07 07:52:00,
2013-10-07 03:12:00,52.0,39.0,29.88,West,275,4.0,10.0,61,0.00,,,0.08,,2013-10-07 08:12:00,
2013-10-07 03:21:00,51.0,34.0,29.88,West,271,4.0,12.0,53,0.00,,,0.08,,2013-10-07 08:21:00,
2013-10-07 04:43:00,48.0,34.0,29.88,WSW,245,3.0,7.0,57,0.00,,,0.07,,2013-10-07 09:43:00,
2013-10-07 04:53:00,47.0,33.0,29.88,SW,232,3.0,6.0,58,0.00,,,0.05,,2013-10-07 09:53:00,
2013-10-07 05:13:00,47.0,33.0,29.89,WSW,255,2.0,6.0,59,0.00,,,0.05,,2013-10-07 10:13:00,
2013-10-07 05:23:00,47.0,33.0,29.89,WSW,249,1.0,5.0,59,0.00,,,0.05,,2013-10-07 10:23:00,
2013-10-07 05:42:00,46.0,33.0,29.89,WSW,245,0.0,5.0,60,0.00,,,0.05,,2013-10-07 10:42:00,
2013-10-07 05:53:00,46.0,33.0,29.90,WSW,247,0.0,4.0,61,0.00,,,0.04,,2013-10-07 10:53:00,
2013-10-07 06:12:00,46.0,33.0,29.90,West,263,1.0,4.0,61,0.00,,,0.04,,2013-10-07 11:12:00,
2013-10-07 06:22:00,45.0,33.0,29.91,WSW,249,0.0,5.0,62,0.00,,,0.04,,2013-10-07 11:22:00,
2013-10-07 06:52:00,45.0,33.0,29.92,WSW,240,1.0,5.0,63,0.00,,,0.03,,2013-10-07 11:52:00,
2013-10-07 07:12:00,44.0,33.0,29.92,WSW,240,0.0,4.0,64,0.00,,,0.03,,2013-10-07 12:12:00,
2013-10-07 07:22:00,44.0,33.0,29.93,WSW,242,0.0,2.0,65,0.00,,,0.03,,2013-10-07 12:22:00,
2013-10-07 07:43:00,44.0,33.0,29.93,WSW,243,0.0,3.0,65,0.00,,,0.03,,2013-10-07 12:43:00,
2013-10-07 07:52:00,43.0,32.0,29.93,WSW,243,0.0,4.0,66,0.00,,,0.03,,2013-10-07 12:52:00,
2013-10-07 08:11:00,43.0,32.0,29.93,WSW,242,0.0,3.0,66,0.00,,,0.03,,2013-10-07 13:11:00,
2013-10-07 08:22:00,43.0,33.0,29.93,WSW,240,0.0,2.0,67,0.00,,,0.03,,2013-10-07 13:22:00,
2013-10-07 08:42:00,44.0,33.0,29.94,WSW,242,0.0,1.0,66,0.00,,,0.03,,2013-10-07 13:42:00,
2013-10-07 08:52:00,44.0,33.0,29.94,WSW,244,0.0,3.0,64,0.00,,,0.03,,2013-10-07 13:52:00,
2013-10-07 09:11:00,45.0,34.0,29.95,WSW,244,0.0,3.0,65,0.00,,,0.03,,2013-10-07 14:11:00,
2013-10-07 09:22:00,46.0,35.0,29.94,WSW,244,0.0,2.0,64,0.00,,,0.03,,2013-10-07 14:22:00,
2013-10-07 09:42:00,48.0,36.0,29.95,WSW,244,0.0,2.0,62,0.00,,,0.03,,2013-10-07 14:42:00,
2013-10-07 09:52:00,50.0,34.0,29.95,WSW,254,0.0,3.0,55,0.00,,,0.01,,2013-10-07 14:52:00,
2013-10-07 11:23:00,56.0,42.0,29.97,East,83,2.0,5.0,60,0.00,,,0.01,,2013-10-07 16:23:00,
2013-10-07 11:43:00,57.0,43.0,29.97,NNE,24,2.0,4.0,59,0.00,,,0.01,,2013-10-07 16:43:00,
2013-10-07 11:53:00,58.0,42.0,29.97,ENE,78,2.0,4.0,56,0.00,,,0.01,,2013-10-07 16:53:00,
2013-10-07 12:12:00,59.0,42.0,29.97,ESE,107,0.0,3.0,54,0.00,,,0.01,,2013-10-07 17:12:00,
2013-10-07 12:22:00,60.0,41.0,29.96,ESE,122,1.0,4.0,49,0.00,,,0.01,,2013-10-07 17:22:00,
2013-10-07 12:52:00,63.0,41.0,29.96,SSE,166,2.0,6.0,45,0.00,,,0.00,,2013-10-07 17:52:00,
2013-10-07 13:12:00,63.0,41.0,29.96,SSE,160,1.0,7.0,44,0.00,,,0.00,,2013-10-07 18:12:00,
2013-10-07 13:22:00,64.0,39.0,29.96,SSE,158,1.0,6.0,40,0.00,,,0.00,,2013-10-07 18:22:00,
2013-10-07 13:42:00,64.0,40.0,29.95,SSW,192,1.0,7.0,41,0.00,,,0.00,,2013-10-07 18:42:00,
2013-10-07 13:52:00,64.0,39.0,29.95,SE,128,1.0,10.0,39,0.00,,,0.00,,2013-10-07 18:52:00,
2013-10-07 14:11:00,65.0,40.0,29.94,South,188,1.0,6.0,40,0.00,,,0.00,,2013-10-07 19:11:00,
2013-10-07 14:22:00,66.0,42.0,29.93,SSE,151,1.0,7.0,41,0.00,,,0.00,,2013-10-07 19:22:00,
2013-10-07 14:42:00,66.0,40.0,29.93,SSW,209,0.0,5.0,38,0.00,,,0.00,,2013-10-07 19:42:00,
2013-10-07 14:52:00,67.0,41.0,29.92,SSE,168,0.0,6.0,39,0.00,,,0.00,,2013-10-07 19:52:00,
2013-10-07 15:12:00,67.0,41.0,29.92,SSE,149,2.0,6.0,39,0.00,,,0.00,,2013-10-07 20:12:00,
2013-10-07 15:22:00,67.0,40.0,29.91,SSE,167,1.0,5.0,37,0.00,,,0.00,,2013-10-07 20:22:00,
2013-10-07 15:43:00,68.0,41.0,29.91,SE,136,2.0,8.0,38,0.00,,,0.00,,2013-10-07 20:43:00,
2013-10-07 15:52:00,68.0,40.0,29.90,East,100,3.0,7.0,36,0.00,,,0.00,,2013-10-07 20:52:00,
2013-10-07 16:12:00,68.0,41.0,29.90,ESE,123,4.0,8.0,38,0.00,,,0.00,,2013-10-07 21:12:00,
2013-10-07 16:23:00,68.0,43.0,29.89,SE,133,3.0,8.0,40,0.00,,,0.00,,2013-10-07 21:23:00,
2013-10-07 16:43:00,69.0,42.0,29.89,SSE,153,1.0,8.0,38,0.00,,,0.00,,2013-10-07 21:43:00,
2013-10-07 16:55:00,69.0,42.0,29.88,SE,137,2.0,7.0,38,0.00,,,0.00,,2013-10-07 21:55:00,
2013-10-07 17:13:00,68.0,41.0,29.88,East,92,4.0,8.0,38,0.00,,,0.00,,2013-10-07 22:13:00,
2013-10-07 17:24:00,69.0,43.0,29.88,SE,139,2.0,8.0,39,0.00,,,0.00,,2013-10-07 22:24:00,
2013-10-07 17:43:00,69.0,43.0,29.88,ESE,117,3.0,8.0,39,0.00,,,0.00,,2013-10-07 22:43:00,
2013-10-07 17:53:00,69.0,44.0,29.87,SE,146,2.0,9.0,41,0.00,,,0.00,,2013-10-07 22:53:00,
2013-10-07 18:12:00,68.0,44.0,29.86,SSE,155,3.0,9.0,42,0.00,,,0.00,,2013-10-07 23:12:00,
2013-10-07 18:22:00,68.0,45.0,29.86,SE,138,4.0,8.0,44,0.00,,,0.00,,2013-10-07 23:22:00,
2013-10-07 18:52:00,66.0,46.0,29.86,SE,134,0.0,5.0,49,0.00,,,0.00,,2013-10-07 23:52:00,
2013-10-07 19:11:00,65.0,47.0,29.86,SE,141,0.0,3.0,52,0.00,,,0.00,,2013-10-08 00:11:00,
2013-10-07 19:22:00,63.0,45.0,29.85,SSE,148,0.0,3.0,52,0.00,,,0.00,,2013-10-08 00:22:00,
2013-10-07 19:42:00,61.0,45.0,29.86,SE,129,2.0,4.0,55,0.00,,,0.00,,2013-10-08 00:42:00,
2013-10-07 19:52:00,59.0,45.0,29.86,SE,144,3.0,6.0,59,0.00,,,0.00,,2013-10-08 00:52:00,
2013-10-07 20:12:00,59.0,45.0,29.85,SE,143,3.0,5.0,59,0.00,,,0.00,,2013-10-08 01:12:00,
2013-10-07 20:21:00,58.0,44.0,29.85,SE,129,3.0,5.0,59,0.00,,,0.00,,2013-10-08 01:21:00,
2013-10-07 20:42:00,57.0,43.0,29.85,SSE,149,2.0,5.0,59,0.00,,,0.00,,2013-10-08 01:42:00,
2013-10-07 21:11:00,56.0,37.0,29.86,South,176,0.0,3.0,48,0.00,,,0.00,,2013-10-08 02:11:00,
2013-10-07 22:22:00,53.0,37.0,29.84,SSE,158,1.0,5.0,54,0.00,,,0.00,,2013-10-08 03:22:00,
2013-10-07 23:43:00,49.0,37.0,29.83,SSE,163,1.0,5.0,63,0.00,,,0.00,,2013-10-08 04:43:00,